首页
METAR-TAF:

METAR-TAF

机场 :

阿姆利则, 印度

纬度: 31-38N, 经度: 074-52E, 海拔: 229米

当前天气观测

该预报发布于35分钟前的00:30 UTC
风速3节,风向
温度 31°C
湿度 66%
气压 1000 hPa
能見度: 5000
少量云层高于10000英尺
霾,

METAR: VIAR 170030Z 10003KT 5000 HZ FEW100 31/24 Q1000 NOSIG

时间: 06:35 (01:05 UTC)

预报

该预报发布于2小时和4分钟前的23:01 UTC
预报有效从17日的 00点(UTC)到 18日的 06点(UTC)
风速2节,风向多变
能見度: 4000
成为
从 17日的 04点(UTC)到 17日的 06点(UTC)
风速8节,风向西转西北
能見度: 5000
少量云层高于10000英尺
成为
从 17日的 08点(UTC)到 17日的 10点(UTC)
风速10节,风向西,有时为20节阵风
能見度: 6000
少量云层高于3500英尺
散云层高于9000英尺
成为
从 17日的 15点(UTC)到 17日的 17点(UTC)
风速10节,风向西
能見度: 5000
散云层高于3000英尺
散云层高于9000英尺
霾, 小雨
成为
从 18日的 00点(UTC)到 18日的 02点(UTC)
风速6节,风向西转西北
能見度: 3500
少量云层高于10000英尺
成为
从 18日的 04点(UTC)到 18日的 06点(UTC)
风速10节,风向西
能見度: 5000
霾,

TAF: VIAR 162301Z 1700/1806 VRB02KT 4000 HZ NSC BECMG 1704/1706 29008KT 5000 HZ FEW100 BECMG 1708/1710 27010G20KT 6000 FEW035 SCT090 BECMG 1715/1717 27010KT 5000 HZ -RA SCT030 SCT090 BECMG 1800/1802 29006KT 3500 HZ FEW100 BECMG 1804/1806 27010KT 5000 HZ

超过4000个机场的气象观测和天气预报(METAR&TAF报告)。

可查询的气象台以黄色和红色小点在地图上表示。

将鼠标移到小点上方,可查看气象台名称。

然后点击查看天气观测和预报。

如需切换地图:点击带黑十字的绿色按钮放大地图;点击带横线的绿色按钮缩小地图;或者点击绿色箭头查看邻近地区的地图。


METAR-TAF: